createdAt,value
2023-02-02T00:00:59.405Z,9.28
2023-02-02T00:06:09.373Z,8.89
2023-02-02T00:11:13.412Z,6.94
2023-02-02T00:16:29.197Z,7.29
2023-02-02T00:21:33.024Z,8.47
2023-02-02T00:26:37.544Z,9.02
2023-02-02T00:31:40.835Z,9.26
2023-02-02T00:36:45.745Z,9.31
2023-02-02T00:41:49.046Z,9.20
2023-02-02T00:46:52.140Z,9.21
2023-02-02T00:51:55.278Z,9.31
2023-02-02T00:56:58.361Z,9.48
2023-02-02T01:02:02.404Z,8.34
2023-02-02T01:07:06.613Z,6.42
2023-02-02T01:12:09.737Z,7.04
2023-02-02T01:17:14.852Z,7.74
2023-02-02T01:22:17.978Z,8.09
2023-02-02T01:27:21.186Z,8.31
2023-02-02T01:32:24.306Z,8.37
2023-02-02T01:37:28.017Z,8.33
2023-02-02T01:42:31.220Z,6.93
2023-02-02T01:47:43.136Z,5.04
2023-02-02T01:52:49.831Z,5.79
2023-02-02T01:58:00.928Z,7.09
2023-02-02T02:03:12.029Z,7.49
2023-02-02T02:08:47.507Z,7.83
2023-02-02T02:14:13.650Z,8.08
2023-02-02T02:20:07.009Z,8.18
2023-02-02T02:26:05.413Z,8.64
2023-02-02T02:31:21.878Z,7.49
2023-02-02T02:36:52.998Z,5.44
2023-02-02T02:42:03.015Z,5.86
2023-02-02T02:47:06.484Z,7.27
2023-02-02T02:52:10.104Z,7.97
2023-02-02T02:57:42.075Z,8.49
2023-02-02T03:03:26.568Z,8.59
2023-02-02T03:08:32.764Z,8.79
2023-02-02T03:13:36.361Z,9.05
2023-02-02T03:18:40.175Z,9.25
2023-02-02T03:23:43.393Z,9.34
2023-02-02T03:28:46.801Z,9.18
2023-02-02T03:33:49.899Z,7.29
2023-02-02T03:38:53.021Z,6.28
2023-02-02T03:43:56.121Z,7.57
2023-02-02T03:48:59.321Z,8.26
2023-02-02T03:54:02.534Z,8.61
2023-02-02T03:59:05.843Z,8.82
2023-02-02T04:04:08.956Z,9.11
2023-02-02T04:09:12.062Z,9.40
2023-02-02T04:14:15.265Z,9.63
2023-02-02T04:19:18.476Z,9.60
2023-02-02T04:24:21.923Z,7.54
2023-02-02T04:29:26.633Z,7.55
2023-02-02T04:34:29.876Z,8.72
2023-02-02T04:39:33.057Z,9.36
2023-02-02T04:44:36.154Z,9.69
2023-02-02T04:49:39.690Z,9.84
2023-02-02T04:54:42.887Z,8.23
2023-02-02T04:59:46.195Z,6.28
2023-02-02T05:04:49.462Z,6.88
2023-02-02T05:09:52.623Z,8.14
2023-02-02T05:14:55.925Z,8.47
2023-02-02T05:19:59.362Z,8.71
2023-02-02T05:25:02.755Z,9.13
2023-02-02T05:30:07.289Z,9.59
2023-02-02T05:35:11.738Z,9.09
2023-02-02T05:40:14.833Z,7.25
2023-02-02T05:45:20.912Z,8.15
2023-02-02T05:50:24.041Z,8.94
2023-02-02T05:55:27.322Z,9.37
2023-02-02T06:00:30.532Z,9.60
2023-02-02T06:05:33.985Z,9.09
2023-02-02T06:10:41.613Z,6.82
2023-02-02T06:15:44.749Z,5.35
2023-02-02T06:20:47.984Z,5.48
2023-02-02T06:25:51.599Z,8.02
2023-02-02T06:30:54.739Z,9.80
2023-02-02T06:36:03.926Z,11.04
2023-02-02T06:41:07.570Z,10.45
2023-02-02T06:46:10.791Z,7.74
2023-02-02T06:51:14.196Z,6.01
2023-02-02T06:56:20.247Z,6.20
2023-02-02T07:01:23.512Z,8.92
2023-02-02T07:06:29.178Z,10.26
2023-02-02T07:11:37.564Z,9.42
2023-02-02T07:16:43.955Z,7.58
2023-02-02T07:21:47.192Z,9.17
2023-02-02T07:26:50.447Z,10.00
2023-02-02T07:31:53.604Z,9.76
2023-02-02T07:36:58.294Z,7.23
2023-02-02T07:42:01.438Z,7.18
2023-02-02T07:47:05.465Z,9.41
2023-02-02T07:52:08.609Z,10.66
2023-02-02T07:57:13.925Z,10.27
2023-02-02T08:02:17.551Z,7.59
2023-02-02T08:07:24.860Z,6.73
2023-02-02T08:12:28.617Z,9.16
2023-02-02T08:17:31.674Z,10.50
2023-02-02T08:22:34.783Z,10.29
2023-02-02T08:27:38.048Z,7.88
2023-02-02T08:32:41.340Z,7.32
2023-02-02T08:37:44.408Z,9.29
2023-02-02T08:42:51.339Z,10.27
2023-02-02T08:48:10.406Z,8.45
2023-02-02T08:53:14.825Z,7.34
2023-02-02T08:58:18.034Z,9.04
2023-02-02T09:03:21.959Z,9.88
2023-02-02T09:08:25.129Z,9.47
2023-02-02T09:13:28.389Z,7.58
2023-02-02T09:18:32.629Z,9.25
2023-02-02T09:23:39.062Z,9.23
2023-02-02T09:28:47.276Z,7.46
2023-02-02T09:33:51.140Z,8.88
2023-02-02T09:38:54.276Z,9.62
2023-02-02T09:44:33.187Z,8.40
2023-02-02T09:50:16.957Z,7.40
2023-02-02T09:55:41.455Z,9.04
2023-02-02T10:01:00.640Z,9.11
2023-02-02T10:06:47.370Z,6.69
2023-02-02T10:11:56.419Z,7.59
2023-02-02T10:17:52.389Z,9.76
2023-02-02T10:23:03.990Z,8.76
2023-02-02T10:28:33.086Z,6.54
2023-02-02T10:33:39.797Z,7.40
2023-02-02T10:39:23.122Z,9.77
2023-02-02T10:44:47.425Z,10.46
2023-02-02T10:50:08.044Z,8.16
2023-02-02T10:55:28.968Z,6.77
2023-02-02T11:00:56.082Z,8.96
2023-02-02T11:06:21.451Z,10.63
2023-02-02T11:11:42.591Z,9.81
2023-02-02T11:17:01.264Z,7.71
2023-02-02T11:22:06.018Z,9.50
2023-02-02T11:27:14.459Z,10.15
2023-02-02T11:32:30.876Z,7.94
2023-02-02T11:38:09.290Z,8.97
2023-02-02T11:43:28.699Z,9.74
2023-02-02T11:48:39.298Z,7.15
2023-02-02T11:53:48.626Z,7.48
2023-02-02T11:58:59.886Z,9.14
2023-02-02T12:04:26.341Z,7.37
2023-02-02T12:09:29.679Z,6.20
2023-02-02T12:15:03.713Z,8.52
2023-02-02T12:20:37.751Z,9.30
2023-02-02T12:25:55.802Z,6.65
2023-02-02T12:31:40.845Z,6.11
2023-02-02T12:37:14.120Z,8.23
2023-02-02T12:42:47.213Z,8.09
2023-02-02T12:48:25.552Z,6.13
2023-02-02T12:54:34.998Z,7.55
2023-02-02T12:59:42.644Z,8.27
2023-02-02T13:05:48.392Z,6.53
2023-02-02T13:11:28.872Z,7.95
2023-02-02T13:16:37.283Z,9.00
2023-02-02T13:21:43.736Z,7.21
2023-02-02T13:26:52.589Z,6.72
2023-02-02T13:32:05.804Z,8.08
2023-02-02T13:37:24.021Z,9.10
2023-02-02T13:43:07.182Z,7.70
2023-02-02T13:48:32.008Z,5.27
2023-02-02T13:54:49.450Z,5.16
2023-02-02T14:00:31.471Z,7.28
2023-02-02T14:05:40.622Z,8.11
2023-02-02T14:10:53.578Z,8.02
2023-02-02T14:16:05.935Z,6.00
2023-02-02T14:21:09.592Z,6.92
2023-02-02T14:26:41.587Z,7.85
2023-02-02T14:31:57.467Z,8.46
2023-02-02T14:37:28.544Z,7.78
2023-02-02T14:43:22.140Z,5.20
2023-02-02T14:48:26.889Z,6.49
2023-02-02T14:53:35.612Z,8.75
2023-02-02T14:58:44.067Z,9.46
2023-02-02T15:04:17.574Z,7.47
2023-02-02T15:09:20.915Z,5.26
2023-02-02T15:14:32.933Z,6.64
2023-02-02T15:19:44.062Z,8.69
2023-02-02T15:24:48.794Z,8.31
2023-02-02T15:30:07.729Z,5.91
2023-02-02T15:35:23.880Z,7.01
2023-02-02T15:40:33.344Z,8.21
2023-02-02T15:45:43.812Z,8.08
2023-02-02T15:50:51.339Z,5.56
2023-02-02T15:55:57.595Z,5.38
2023-02-02T16:01:19.109Z,7.11
2023-02-02T16:06:22.827Z,7.71
2023-02-02T16:11:26.114Z,7.90
2023-02-02T16:16:32.687Z,7.71
2023-02-02T16:21:46.763Z,5.51
2023-02-02T16:26:54.436Z,4.70
2023-02-02T16:31:58.602Z,6.44
2023-02-02T16:37:12.479Z,7.41
2023-02-02T16:42:31.920Z,7.91
2023-02-02T16:47:38.979Z,8.11
2023-02-02T16:52:52.829Z,7.57
2023-02-02T16:57:57.261Z,5.21
2023-02-02T17:03:10.328Z,5.96
2023-02-02T17:08:15.144Z,6.88
2023-02-02T17:13:35.045Z,7.30
2023-02-02T17:18:38.472Z,7.61
2023-02-02T17:23:42.854Z,7.89
2023-02-02T17:28:46.846Z,7.20
2023-02-02T17:33:50.025Z,4.90
2023-02-02T17:38:53.243Z,4.23
2023-02-02T17:43:56.443Z,5.91
2023-02-02T17:48:59.652Z,6.76
2023-02-02T17:54:02.856Z,7.26
2023-02-02T17:59:06.370Z,7.47
2023-02-02T18:04:12.778Z,7.49
2023-02-02T18:09:16.171Z,7.65
2023-02-02T18:14:19.380Z,7.92
2023-02-02T18:19:22.688Z,7.07
2023-02-02T18:24:25.898Z,4.81
2023-02-02T18:29:29.465Z,5.27
2023-02-02T18:34:34.651Z,6.61
2023-02-02T18:39:37.781Z,7.08
2023-02-02T18:44:41.400Z,7.55
2023-02-02T18:49:44.713Z,7.86
2023-02-02T18:54:49.036Z,7.06
2023-02-02T18:59:54.814Z,4.72
2023-02-02T19:05:16.573Z,4.46
2023-02-02T19:10:22.865Z,5.85
2023-02-02T19:15:28.888Z,6.58
2023-02-02T19:20:32.834Z,6.90
2023-02-02T19:25:36.481Z,7.16
2023-02-02T19:30:45.152Z,7.31
2023-02-02T19:35:52.580Z,7.31
2023-02-02T19:40:56.245Z,6.93
2023-02-02T19:46:00.640Z,4.74
2023-02-02T19:51:34.407Z,4.07
2023-02-02T19:56:40.325Z,5.70
2023-02-02T20:01:48.022Z,6.49
2023-02-02T20:06:59.149Z,6.71
2023-02-02T20:12:26.952Z,6.85
2023-02-02T20:17:34.667Z,6.90
2023-02-02T20:22:38.892Z,7.00
2023-02-02T20:27:41.996Z,6.36
2023-02-02T20:32:45.415Z,4.40
2023-02-02T20:37:49.534Z,5.17
2023-02-02T20:42:53.051Z,6.10
2023-02-02T20:47:56.163Z,6.48
2023-02-02T20:53:00.302Z,6.51
2023-02-02T20:58:04.915Z,6.74
2023-02-02T21:03:08.147Z,5.53
2023-02-02T21:08:11.665Z,3.81
2023-02-02T21:13:14.867Z,5.12
2023-02-02T21:18:18.006Z,5.82
2023-02-02T21:23:22.027Z,6.11
2023-02-02T21:28:25.413Z,6.34
2023-02-02T21:33:28.623Z,6.57
2023-02-02T21:38:31.839Z,4.74
2023-02-02T21:43:35.250Z,3.94
2023-02-02T21:48:39.889Z,5.25
2023-02-02T21:53:43.093Z,5.91
2023-02-02T21:58:47.743Z,6.23
2023-02-02T22:03:51.354Z,6.65
2023-02-02T22:09:13.118Z,5.22
2023-02-02T22:14:35.666Z,2.99
2023-02-02T22:19:39.716Z,3.74
2023-02-02T22:24:45.899Z,6.17
2023-02-02T22:29:52.253Z,7.51
2023-02-02T22:34:55.457Z,6.39
2023-02-02T22:40:00.592Z,3.98
2023-02-02T22:45:04.468Z,5.39
2023-02-02T22:50:08.501Z,6.05
2023-02-02T22:55:12.706Z,3.85
2023-02-02T23:00:29.207Z,2.97
2023-02-02T23:05:32.549Z,5.12
2023-02-02T23:10:36.359Z,5.32
2023-02-02T23:15:39.623Z,3.23
2023-02-02T23:20:42.830Z,4.96
2023-02-02T23:25:46.002Z,6.94
2023-02-02T23:30:49.712Z,4.86
2023-02-02T23:35:52.905Z,2.78
2023-02-02T23:40:56.339Z,1.66
2023-02-02T23:46:00.460Z,0.91
2023-02-02T23:51:04.035Z,0.35
2023-02-02T23:56:07.656Z,-0.09
